sensor_id;sensor_type;location;lat;lon;timestamp;P1;durP1;ratioP1;P2;durP2;ratioP2
75793;SDS011;64418;47.536;19.074;2022-12-29T00:02:22;19.83;;;10.52;;
75793;SDS011;64418;47.536;19.074;2022-12-29T00:04:49;25.73;;;10.13;;
75793;SDS011;64418;47.536;19.074;2022-12-29T00:07:15;20.37;;;9.20;;
75793;SDS011;64418;47.536;19.074;2022-12-29T00:09:41;18.62;;;9.88;;
75793;SDS011;64418;47.536;19.074;2022-12-29T00:12:07;19.15;;;9.60;;
75793;SDS011;64418;47.536;19.074;2022-12-29T00:14:33;19.73;;;9.65;;
75793;SDS011;64418;47.536;19.074;2022-12-29T00:16:59;19.47;;;10.57;;
75793;SDS011;64418;47.536;19.074;2022-12-29T00:19:27;22.70;;;10.65;;
75793;SDS011;64418;47.536;19.074;2022-12-29T00:21:54;17.10;;;9.75;;
75793;SDS011;64418;47.536;19.074;2022-12-29T00:24:20;23.65;;;10.10;;
75793;SDS011;64418;47.536;19.074;2022-12-29T00:26:47;21.45;;;10.32;;
75793;SDS011;64418;47.536;19.074;2022-12-29T00:29:18;20.13;;;10.30;;
75793;SDS011;64418;47.536;19.074;2022-12-29T00:31:43;21.87;;;9.63;;
75793;SDS011;64418;47.536;19.074;2022-12-29T00:34:10;18.73;;;10.07;;
75793;SDS011;64418;47.536;19.074;2022-12-29T00:36:39;20.67;;;9.82;;
75793;SDS011;64418;47.536;19.074;2022-12-29T00:39:09;17.30;;;9.17;;
75793;SDS011;64418;47.536;19.074;2022-12-29T00:41:37;19.80;;;9.77;;
75793;SDS011;64418;47.536;19.074;2022-12-29T00:44:03;23.45;;;10.95;;
75793;SDS011;64418;47.536;19.074;2022-12-29T00:46:29;23.73;;;10.57;;
75793;SDS011;64418;47.536;19.074;2022-12-29T00:48:55;20.77;;;10.20;;
75793;SDS011;64418;47.536;19.074;2022-12-29T00:51:22;23.10;;;10.30;;
75793;SDS011;64418;47.536;19.074;2022-12-29T00:53:49;18.00;;;9.73;;
75793;SDS011;64418;47.536;19.074;2022-12-29T00:56:15;21.62;;;10.32;;
75793;SDS011;64418;47.536;19.074;2022-12-29T00:58:41;18.07;;;9.90;;
75793;SDS011;64418;47.536;19.074;2022-12-29T01:01:08;20.23;;;9.88;;
75793;SDS011;64418;47.536;19.074;2022-12-29T01:03:34;21.87;;;10.15;;
75793;SDS011;64418;47.536;19.074;2022-12-29T01:06:01;20.67;;;10.57;;
75793;SDS011;64418;47.536;19.074;2022-12-29T01:08:29;19.97;;;10.00;;
75793;SDS011;64418;47.536;19.074;2022-12-29T01:10:59;22.17;;;10.10;;
75793;SDS011;64418;47.536;19.074;2022-12-29T01:13:29;22.77;;;10.32;;
75793;SDS011;64418;47.536;19.074;2022-12-29T01:15:56;22.00;;;10.38;;
75793;SDS011;64418;47.536;19.074;2022-12-29T01:18:22;19.00;;;10.30;;
75793;SDS011;64418;47.536;19.074;2022-12-29T01:20:49;23.08;;;9.77;;
75793;SDS011;64418;47.536;19.074;2022-12-29T01:23:16;21.12;;;10.25;;
75793;SDS011;64418;47.536;19.074;2022-12-29T01:25:42;18.83;;;9.35;;
75793;SDS011;64418;47.536;19.074;2022-12-29T01:28:10;15.75;;;9.43;;
75793;SDS011;64418;47.536;19.074;2022-12-29T01:30:35;22.43;;;9.77;;
75793;SDS011;64418;47.536;19.074;2022-12-29T01:33:01;18.12;;;9.43;;
75793;SDS011;64418;47.536;19.074;2022-12-29T01:35:27;21.33;;;9.43;;
75793;SDS011;64418;47.536;19.074;2022-12-29T01:37:53;17.80;;;9.27;;
75793;SDS011;64418;47.536;19.074;2022-12-29T01:40:19;19.40;;;9.18;;
75793;SDS011;64418;47.536;19.074;2022-12-29T01:42:45;18.10;;;9.63;;
75793;SDS011;64418;47.536;19.074;2022-12-29T01:45:13;18.25;;;9.52;;
75793;SDS011;64418;47.536;19.074;2022-12-29T01:47:41;21.57;;;9.87;;
75793;SDS011;64418;47.536;19.074;2022-12-29T01:50:11;19.15;;;9.90;;
75793;SDS011;64418;47.536;19.074;2022-12-29T01:52:44;21.25;;;9.18;;
75793;SDS011;64418;47.536;19.074;2022-12-29T01:55:16;18.52;;;9.35;;
75793;SDS011;64418;47.536;19.074;2022-12-29T01:57:44;18.17;;;9.30;;
75793;SDS011;64418;47.536;19.074;2022-12-29T02:00:16;22.10;;;9.70;;
75793;SDS011;64418;47.536;19.074;2022-12-29T02:02:42;18.85;;;9.90;;
75793;SDS011;64418;47.536;19.074;2022-12-29T02:05:14;23.85;;;10.40;;
75793;SDS011;64418;47.536;19.074;2022-12-29T02:07:45;17.90;;;9.23;;
75793;SDS011;64418;47.536;19.074;2022-12-29T02:10:13;17.60;;;9.52;;
75793;SDS011;64418;47.536;19.074;2022-12-29T02:12:40;20.40;;;9.77;;
75793;SDS011;64418;47.536;19.074;2022-12-29T02:15:06;21.98;;;9.93;;
75793;SDS011;64418;47.536;19.074;2022-12-29T02:17:39;18.30;;;9.25;;
75793;SDS011;64418;47.536;19.074;2022-12-29T02:26:14;19.13;;;9.33;;
75793;SDS011;64418;47.536;19.074;2022-12-29T02:29:06;24.27;;;10.27;;
75793;SDS011;64418;47.536;19.074;2022-12-29T02:32:07;19.00;;;9.27;;
75793;SDS011;64418;47.536;19.074;2022-12-29T02:34:43;18.55;;;10.70;;
75793;SDS011;64418;47.536;19.074;2022-12-29T02:37:17;20.92;;;10.38;;
75793;SDS011;64418;47.536;19.074;2022-12-29T02:39:48;21.80;;;10.57;;
75793;SDS011;64418;47.536;19.074;2022-12-29T02:42:23;21.50;;;10.70;;
75793;SDS011;64418;47.536;19.074;2022-12-29T02:44:56;20.42;;;9.98;;
75793;SDS011;64418;47.536;19.074;2022-12-29T02:47:33;19.40;;;9.88;;
75793;SDS011;64418;47.536;19.074;2022-12-29T02:50:03;20.35;;;10.07;;
75793;SDS011;64418;47.536;19.074;2022-12-29T02:52:35;22.47;;;10.70;;
75793;SDS011;64418;47.536;19.074;2022-12-29T02:55:06;22.13;;;10.38;;
75793;SDS011;64418;47.536;19.074;2022-12-29T02:57:32;19.60;;;10.23;;
75793;SDS011;64418;47.536;19.074;2022-12-29T03:00:02;21.87;;;10.77;;
75793;SDS011;64418;47.536;19.074;2022-12-29T03:02:35;20.33;;;10.90;;
75793;SDS011;64418;47.536;19.074;2022-12-29T03:08:30;23.70;;;10.73;;
75793;SDS011;64418;47.536;19.074;2022-12-29T03:11:02;23.33;;;11.02;;
75793;SDS011;64418;47.536;19.074;2022-12-29T03:13:32;25.27;;;11.43;;
75793;SDS011;64418;47.536;19.074;2022-12-29T03:16:04;22.23;;;9.43;;
75793;SDS011;64418;47.536;19.074;2022-12-29T03:18:44;24.15;;;11.43;;
75793;SDS011;64418;47.536;19.074;2022-12-29T03:21:15;22.77;;;11.90;;
75793;SDS011;64418;47.536;19.074;2022-12-29T03:23:48;22.15;;;11.57;;
75793;SDS011;64418;47.536;19.074;2022-12-29T03:26:16;26.67;;;12.80;;
75793;SDS011;64418;47.536;19.074;2022-12-29T03:28:45;28.77;;;12.63;;
75793;SDS011;64418;47.536;19.074;2022-12-29T03:31:15;26.67;;;12.52;;
75793;SDS011;64418;47.536;19.074;2022-12-29T03:33:44;23.50;;;12.65;;
75793;SDS011;64418;47.536;19.074;2022-12-29T03:36:13;26.25;;;12.57;;
75793;SDS011;64418;47.536;19.074;2022-12-29T03:38:47;28.87;;;13.48;;
75793;SDS011;64418;47.536;19.074;2022-12-29T03:41:19;29.40;;;13.10;;
75793;SDS011;64418;47.536;19.074;2022-12-29T03:43:49;28.77;;;12.55;;
75793;SDS011;64418;47.536;19.074;2022-12-29T03:46:16;25.17;;;12.75;;
75793;SDS011;64418;47.536;19.074;2022-12-29T03:48:44;24.42;;;12.73;;
75793;SDS011;64418;47.536;19.074;2022-12-29T03:51:10;27.80;;;14.17;;
75793;SDS011;64418;47.536;19.074;2022-12-29T03:53:36;29.33;;;13.75;;
75793;SDS011;64418;47.536;19.074;2022-12-29T03:56:02;27.08;;;13.15;;
75793;SDS011;64418;47.536;19.074;2022-12-29T03:58:29;24.67;;;12.85;;
75793;SDS011;64418;47.536;19.074;2022-12-29T04:00:54;29.13;;;13.63;;
75793;SDS011;64418;47.536;19.074;2022-12-29T04:03:20;31.08;;;13.95;;
75793;SDS011;64418;47.536;19.074;2022-12-29T04:05:47;25.77;;;12.27;;
75793;SDS011;64418;47.536;19.074;2022-12-29T04:08:13;25.37;;;12.80;;
75793;SDS011;64418;47.536;19.074;2022-12-29T04:10:38;29.83;;;13.77;;
75793;SDS011;64418;47.536;19.074;2022-12-29T04:13:04;24.45;;;12.88;;
75793;SDS011;64418;47.536;19.074;2022-12-29T04:15:30;26.37;;;13.15;;
75793;SDS011;64418;47.536;19.074;2022-12-29T04:17:56;26.80;;;13.70;;
75793;SDS011;64418;47.536;19.074;2022-12-29T04:20:22;25.57;;;13.07;;
75793;SDS011;64418;47.536;19.074;2022-12-29T04:22:49;24.87;;;12.75;;
75793;SDS011;64418;47.536;19.074;2022-12-29T04:25:22;33.27;;;13.30;;
75793;SDS011;64418;47.536;19.074;2022-12-29T04:27:48;25.73;;;13.23;;
75793;SDS011;64418;47.536;19.074;2022-12-29T04:30:14;25.00;;;13.33;;
75793;SDS011;64418;47.536;19.074;2022-12-29T04:32:39;26.67;;;12.90;;
75793;SDS011;64418;47.536;19.074;2022-12-29T04:35:06;25.37;;;12.82;;
75793;SDS011;64418;47.536;19.074;2022-12-29T04:37:33;28.20;;;13.13;;
75793;SDS011;64418;47.536;19.074;2022-12-29T04:40:00;29.17;;;13.50;;
75793;SDS011;64418;47.536;19.074;2022-12-29T04:42:26;27.83;;;13.10;;
75793;SDS011;64418;47.536;19.074;2022-12-29T04:44:52;27.05;;;13.68;;
75793;SDS011;64418;47.536;19.074;2022-12-29T04:47:18;24.60;;;12.77;;
75793;SDS011;64418;47.536;19.074;2022-12-29T04:49:44;24.02;;;12.60;;
75793;SDS011;64418;47.536;19.074;2022-12-29T04:52:09;28.52;;;13.90;;
75793;SDS011;64418;47.536;19.074;2022-12-29T04:54:35;28.77;;;13.40;;
75793;SDS011;64418;47.536;19.074;2022-12-29T04:57:03;28.00;;;13.18;;
75793;SDS011;64418;47.536;19.074;2022-12-29T04:59:32;27.75;;;12.95;;
75793;SDS011;64418;47.536;19.074;2022-12-29T05:01:59;29.43;;;13.27;;
75793;SDS011;64418;47.536;19.074;2022-12-29T05:04:25;23.02;;;12.52;;
75793;SDS011;64418;47.536;19.074;2022-12-29T05:06:51;25.95;;;12.35;;
75793;SDS011;64418;47.536;19.074;2022-12-29T05:09:16;22.60;;;12.07;;
75793;SDS011;64418;47.536;19.074;2022-12-29T05:11:43;29.23;;;12.75;;
75793;SDS011;64418;47.536;19.074;2022-12-29T05:14:11;24.77;;;12.57;;
75793;SDS011;64418;47.536;19.074;2022-12-29T05:16:37;24.90;;;12.80;;
75793;SDS011;64418;47.536;19.074;2022-12-29T05:19:03;27.77;;;12.50;;
75793;SDS011;64418;47.536;19.074;2022-12-29T05:21:29;23.87;;;11.48;;
75793;SDS011;64418;47.536;19.074;2022-12-29T05:23:57;22.15;;;11.57;;
75793;SDS011;64418;47.536;19.074;2022-12-29T05:26:23;23.10;;;12.30;;
75793;SDS011;64418;47.536;19.074;2022-12-29T05:28:49;25.12;;;11.98;;
75793;SDS011;64418;47.536;19.074;2022-12-29T05:31:16;24.23;;;11.88;;
75793;SDS011;64418;47.536;19.074;2022-12-29T05:33:41;23.90;;;12.83;;
75793;SDS011;64418;47.536;19.074;2022-12-29T05:36:08;28.65;;;13.62;;
75793;SDS011;64418;47.536;19.074;2022-12-29T05:38:35;27.23;;;12.25;;
75793;SDS011;64418;47.536;19.074;2022-12-29T05:41:01;28.53;;;12.27;;
75793;SDS011;64418;47.536;19.074;2022-12-29T05:43:27;27.45;;;13.27;;
75793;SDS011;64418;47.536;19.074;2022-12-29T05:45:53;29.92;;;13.05;;
75793;SDS011;64418;47.536;19.074;2022-12-29T05:48:21;25.17;;;12.05;;
75793;SDS011;64418;47.536;19.074;2022-12-29T05:50:47;26.20;;;12.90;;
75793;SDS011;64418;47.536;19.074;2022-12-29T05:53:13;27.67;;;13.32;;
75793;SDS011;64418;47.536;19.074;2022-12-29T05:55:39;27.87;;;13.18;;
75793;SDS011;64418;47.536;19.074;2022-12-29T05:58:05;27.23;;;13.05;;
75793;SDS011;64418;47.536;19.074;2022-12-29T06:00:30;29.70;;;13.57;;
75793;SDS011;64418;47.536;19.074;2022-12-29T06:02:57;23.90;;;12.70;;
75793;SDS011;64418;47.536;19.074;2022-12-29T06:05:24;26.60;;;13.52;;
75793;SDS011;64418;47.536;19.074;2022-12-29T06:07:50;26.43;;;12.87;;
75793;SDS011;64418;47.536;19.074;2022-12-29T06:10:17;26.37;;;13.20;;
75793;SDS011;64418;47.536;19.074;2022-12-29T06:12:43;25.95;;;12.82;;
75793;SDS011;64418;47.536;19.074;2022-12-29T06:15:10;25.50;;;12.52;;
75793;SDS011;64418;47.536;19.074;2022-12-29T06:17:36;27.98;;;13.38;;
75793;SDS011;64418;47.536;19.074;2022-12-29T06:20:02;26.70;;;12.93;;
75793;SDS011;64418;47.536;19.074;2022-12-29T06:22:29;29.08;;;13.50;;
75793;SDS011;64418;47.536;19.074;2022-12-29T06:24:55;25.37;;;13.45;;
75793;SDS011;64418;47.536;19.074;2022-12-29T06:27:21;29.53;;;13.20;;
75793;SDS011;64418;47.536;19.074;2022-12-29T06:29:46;30.23;;;14.65;;
75793;SDS011;64418;47.536;19.074;2022-12-29T06:32:12;31.13;;;13.90;;
75793;SDS011;64418;47.536;19.074;2022-12-29T06:34:38;26.73;;;13.98;;
75793;SDS011;64418;47.536;19.074;2022-12-29T06:37:05;28.65;;;13.25;;
75793;SDS011;64418;47.536;19.074;2022-12-29T06:39:33;32.42;;;14.68;;
75793;SDS011;64418;47.536;19.074;2022-12-29T06:42:02;30.60;;;13.82;;
75793;SDS011;64418;47.536;19.074;2022-12-29T06:44:28;27.40;;;13.90;;
75793;SDS011;64418;47.536;19.074;2022-12-29T06:46:54;30.45;;;13.80;;
75793;SDS011;64418;47.536;19.074;2022-12-29T06:49:20;32.33;;;14.32;;
75793;SDS011;64418;47.536;19.074;2022-12-29T06:51:46;29.02;;;13.70;;
75793;SDS011;64418;47.536;19.074;2022-12-29T06:54:15;32.10;;;14.10;;
75793;SDS011;64418;47.536;19.074;2022-12-29T06:56:43;34.75;;;15.25;;
75793;SDS011;64418;47.536;19.074;2022-12-29T06:59:10;29.48;;;13.75;;
75793;SDS011;64418;47.536;19.074;2022-12-29T07:01:36;30.02;;;14.68;;
75793;SDS011;64418;47.536;19.074;2022-12-29T07:04:02;29.50;;;13.47;;
75793;SDS011;64418;47.536;19.074;2022-12-29T07:06:29;28.12;;;13.98;;
75793;SDS011;64418;47.536;19.074;2022-12-29T07:08:55;29.12;;;13.68;;
75793;SDS011;64418;47.536;19.074;2022-12-29T07:11:20;28.20;;;13.93;;
75793;SDS011;64418;47.536;19.074;2022-12-29T07:13:47;30.25;;;13.60;;
75793;SDS011;64418;47.536;19.074;2022-12-29T07:16:14;28.55;;;14.50;;
75793;SDS011;64418;47.536;19.074;2022-12-29T07:18:39;31.30;;;14.93;;
75793;SDS011;64418;47.536;19.074;2022-12-29T07:21:05;31.15;;;13.93;;
75793;SDS011;64418;47.536;19.074;2022-12-29T07:23:31;30.35;;;13.95;;
75793;SDS011;64418;47.536;19.074;2022-12-29T07:25:59;27.90;;;14.18;;
75793;SDS011;64418;47.536;19.074;2022-12-29T07:28:25;31.43;;;15.03;;
75793;SDS011;64418;47.536;19.074;2022-12-29T07:30:53;29.85;;;14.75;;
75793;SDS011;64418;47.536;19.074;2022-12-29T07:33:19;28.80;;;13.55;;
75793;SDS011;64418;47.536;19.074;2022-12-29T07:35:45;31.25;;;14.10;;
75793;SDS011;64418;47.536;19.074;2022-12-29T07:38:11;26.27;;;13.52;;
75793;SDS011;64418;47.536;19.074;2022-12-29T07:40:37;29.23;;;13.57;;
75793;SDS011;64418;47.536;19.074;2022-12-29T07:43:03;30.20;;;14.02;;
75793;SDS011;64418;47.536;19.074;2022-12-29T07:45:28;32.70;;;15.03;;
75793;SDS011;64418;47.536;19.074;2022-12-29T07:47:55;28.35;;;13.38;;
75793;SDS011;64418;47.536;19.074;2022-12-29T07:50:22;28.85;;;14.20;;
75793;SDS011;64418;47.536;19.074;2022-12-29T07:52:48;30.87;;;14.50;;
75793;SDS011;64418;47.536;19.074;2022-12-29T07:55:15;36.45;;;15.68;;
75793;SDS011;64418;47.536;19.074;2022-12-29T07:57:42;32.17;;;15.43;;
75793;SDS011;64418;47.536;19.074;2022-12-29T08:00:09;35.17;;;16.37;;
75793;SDS011;64418;47.536;19.074;2022-12-29T08:02:36;32.95;;;15.07;;
75793;SDS011;64418;47.536;19.074;2022-12-29T08:05:04;32.67;;;17.33;;
75793;SDS011;64418;47.536;19.074;2022-12-29T08:07:30;35.40;;;17.50;;
75793;SDS011;64418;47.536;19.074;2022-12-29T08:09:57;28.23;;;14.65;;
75793;SDS011;64418;47.536;19.074;2022-12-29T08:12:24;31.40;;;17.12;;
75793;SDS011;64418;47.536;19.074;2022-12-29T08:14:51;31.08;;;14.65;;
75793;SDS011;64418;47.536;19.074;2022-12-29T08:17:17;30.57;;;14.53;;
75793;SDS011;64418;47.536;19.074;2022-12-29T08:19:43;27.15;;;14.10;;
75793;SDS011;64418;47.536;19.074;2022-12-29T08:22:11;26.37;;;13.65;;
75793;SDS011;64418;47.536;19.074;2022-12-29T08:24:39;25.65;;;13.77;;
75793;SDS011;64418;47.536;19.074;2022-12-29T08:27:07;29.40;;;13.50;;
75793;SDS011;64418;47.536;19.074;2022-12-29T08:29:33;25.50;;;12.77;;
75793;SDS011;64418;47.536;19.074;2022-12-29T08:31:59;31.12;;;13.45;;
75793;SDS011;64418;47.536;19.074;2022-12-29T08:34:35;29.02;;;14.15;;
75793;SDS011;64418;47.536;19.074;2022-12-29T08:37:03;29.67;;;13.87;;
75793;SDS011;64418;47.536;19.074;2022-12-29T08:39:30;28.25;;;14.65;;
75793;SDS011;64418;47.536;19.074;2022-12-29T08:41:56;27.73;;;13.80;;
75793;SDS011;64418;47.536;19.074;2022-12-29T08:44:22;29.15;;;14.38;;
75793;SDS011;64418;47.536;19.074;2022-12-29T08:46:51;34.58;;;14.70;;
75793;SDS011;64418;47.536;19.074;2022-12-29T08:49:17;28.40;;;14.17;;
75793;SDS011;64418;47.536;19.074;2022-12-29T08:51:43;30.27;;;15.68;;
75793;SDS011;64418;47.536;19.074;2022-12-29T08:54:09;31.62;;;15.20;;
75793;SDS011;64418;47.536;19.074;2022-12-29T08:56:37;31.30;;;14.85;;
75793;SDS011;64418;47.536;19.074;2022-12-29T08:59:03;30.93;;;15.27;;
75793;SDS011;64418;47.536;19.074;2022-12-29T09:01:28;33.90;;;15.48;;
75793;SDS011;64418;47.536;19.074;2022-12-29T09:03:54;33.20;;;15.52;;
75793;SDS011;64418;47.536;19.074;2022-12-29T09:06:20;33.17;;;16.30;;
75793;SDS011;64418;47.536;19.074;2022-12-29T09:08:46;32.83;;;14.68;;
75793;SDS011;64418;47.536;19.074;2022-12-29T09:11:13;30.77;;;15.82;;
75793;SDS011;64418;47.536;19.074;2022-12-29T09:13:42;30.08;;;15.05;;
75793;SDS011;64418;47.536;19.074;2022-12-29T09:16:08;38.17;;;17.43;;
75793;SDS011;64418;47.536;19.074;2022-12-29T09:18:36;39.28;;;18.80;;
75793;SDS011;64418;47.536;19.074;2022-12-29T09:21:04;49.67;;;24.63;;
75793;SDS011;64418;47.536;19.074;2022-12-29T09:23:30;64.57;;;34.00;;
75793;SDS011;64418;47.536;19.074;2022-12-29T09:25:57;63.60;;;32.13;;
75793;SDS011;64418;47.536;19.074;2022-12-29T09:28:23;46.37;;;24.93;;
75793;SDS011;64418;47.536;19.074;2022-12-29T09:30:50;38.45;;;20.95;;
75793;SDS011;64418;47.536;19.074;2022-12-29T09:33:17;41.00;;;22.65;;
75793;SDS011;64418;47.536;19.074;2022-12-29T09:35:44;32.78;;;18.23;;
75793;SDS011;64418;47.536;19.074;2022-12-29T09:38:15;31.57;;;15.93;;
75793;SDS011;64418;47.536;19.074;2022-12-29T09:40:43;32.25;;;16.23;;
75793;SDS011;64418;47.536;19.074;2022-12-29T09:43:15;29.70;;;15.90;;
75793;SDS011;64418;47.536;19.074;2022-12-29T09:45:52;28.12;;;14.77;;
75793;SDS011;64418;47.536;19.074;2022-12-29T09:48:26;31.70;;;16.42;;
75793;SDS011;64418;47.536;19.074;2022-12-29T09:50:55;29.90;;;16.97;;
75793;SDS011;64418;47.536;19.074;2022-12-29T09:53:25;31.23;;;14.93;;
75793;SDS011;64418;47.536;19.074;2022-12-29T09:55:58;26.35;;;14.68;;
75793;SDS011;64418;47.536;19.074;2022-12-29T09:58:28;30.30;;;14.80;;
75793;SDS011;64418;47.536;19.074;2022-12-29T10:01:05;33.03;;;15.02;;
75793;SDS011;64418;47.536;19.074;2022-12-29T10:03:36;31.40;;;14.93;;
75793;SDS011;64418;47.536;19.074;2022-12-29T10:06:11;31.67;;;15.98;;
75793;SDS011;64418;47.536;19.074;2022-12-29T10:08:42;30.65;;;15.68;;
75793;SDS011;64418;47.536;19.074;2022-12-29T10:11:16;30.85;;;15.75;;
75793;SDS011;64418;47.536;19.074;2022-12-29T10:13:58;28.83;;;15.60;;
75793;SDS011;64418;47.536;19.074;2022-12-29T10:16:39;30.20;;;15.20;;
75793;SDS011;64418;47.536;19.074;2022-12-29T10:19:26;29.02;;;15.52;;
75793;SDS011;64418;47.536;19.074;2022-12-29T10:22:09;30.20;;;15.77;;
75793;SDS011;64418;47.536;19.074;2022-12-29T10:24:42;27.33;;;15.18;;
75793;SDS011;64418;47.536;19.074;2022-12-29T10:27:12;31.60;;;15.57;;
75793;SDS011;64418;47.536;19.074;2022-12-29T10:29:43;31.57;;;15.67;;
75793;SDS011;64418;47.536;19.074;2022-12-29T10:32:17;28.67;;;15.52;;
75793;SDS011;64418;47.536;19.074;2022-12-29T10:34:52;28.25;;;16.30;;
75793;SDS011;64418;47.536;19.074;2022-12-29T10:37:26;29.35;;;16.27;;
75793;SDS011;64418;47.536;19.074;2022-12-29T10:40:00;29.17;;;16.98;;
75793;SDS011;64418;47.536;19.074;2022-12-29T10:42:39;27.33;;;14.53;;
75793;SDS011;64418;47.536;19.074;2022-12-29T10:45:10;29.92;;;15.93;;
75793;SDS011;64418;47.536;19.074;2022-12-29T10:47:42;29.80;;;15.30;;
75793;SDS011;64418;47.536;19.074;2022-12-29T10:50:17;28.30;;;16.40;;
75793;SDS011;64418;47.536;19.074;2022-12-29T10:52:43;29.65;;;16.65;;
75793;SDS011;64418;47.536;19.074;2022-12-29T10:55:11;29.77;;;15.93;;
75793;SDS011;64418;47.536;19.074;2022-12-29T10:57:42;26.70;;;16.50;;
75793;SDS011;64418;47.536;19.074;2022-12-29T11:00:11;27.62;;;16.23;;
75793;SDS011;64418;47.536;19.074;2022-12-29T11:02:51;24.58;;;15.90;;
75793;SDS011;64418;47.536;19.074;2022-12-29T11:05:33;31.40;;;21.25;;
75793;SDS011;64418;47.536;19.074;2022-12-29T11:08:08;26.47;;;15.63;;
75793;SDS011;64418;47.536;19.074;2022-12-29T11:10:38;27.35;;;16.98;;
75793;SDS011;64418;47.536;19.074;2022-12-29T11:13:11;26.30;;;16.27;;
75793;SDS011;64418;47.536;19.074;2022-12-29T11:15:40;30.27;;;16.73;;
75793;SDS011;64418;47.536;19.074;2022-12-29T11:18:23;27.95;;;16.23;;
75793;SDS011;64418;47.536;19.074;2022-12-29T11:20:50;24.97;;;16.33;;
75793;SDS011;64418;47.536;19.074;2022-12-29T11:23:22;27.65;;;16.42;;
75793;SDS011;64418;47.536;19.074;2022-12-29T11:26:05;25.70;;;16.33;;
75793;SDS011;64418;47.536;19.074;2022-12-29T11:28:33;25.33;;;15.75;;
75793;SDS011;64418;47.536;19.074;2022-12-29T11:31:00;28.27;;;15.38;;
75793;SDS011;64418;47.536;19.074;2022-12-29T11:33:29;40.07;;;16.87;;
75793;SDS011;64418;47.536;19.074;2022-12-29T11:35:57;24.95;;;15.13;;
75793;SDS011;64418;47.536;19.074;2022-12-29T11:38:28;22.65;;;14.80;;
75793;SDS011;64418;47.536;19.074;2022-12-29T11:41:02;25.15;;;16.20;;
75793;SDS011;64418;47.536;19.074;2022-12-29T11:43:31;26.20;;;16.12;;
75793;SDS011;64418;47.536;19.074;2022-12-29T11:46:00;23.43;;;15.07;;
75793;SDS011;64418;47.536;19.074;2022-12-29T11:48:31;24.63;;;16.00;;
75793;SDS011;64418;47.536;19.074;2022-12-29T11:51:03;28.40;;;15.80;;
75793;SDS011;64418;47.536;19.074;2022-12-29T11:53:34;24.98;;;15.82;;
75793;SDS011;64418;47.536;19.074;2022-12-29T11:56:08;25.30;;;16.77;;
75793;SDS011;64418;47.536;19.074;2022-12-29T11:58:40;24.97;;;16.13;;
75793;SDS011;64418;47.536;19.074;2022-12-29T12:01:09;27.62;;;18.02;;
75793;SDS011;64418;47.536;19.074;2022-12-29T12:03:42;25.30;;;16.70;;
75793;SDS011;64418;47.536;19.074;2022-12-29T12:06:14;25.90;;;16.55;;
75793;SDS011;64418;47.536;19.074;2022-12-29T12:08:46;26.15;;;15.98;;
75793;SDS011;64418;47.536;19.074;2022-12-29T12:11:17;27.00;;;16.63;;
75793;SDS011;64418;47.536;19.074;2022-12-29T12:13:47;25.67;;;16.90;;
75793;SDS011;64418;47.536;19.074;2022-12-29T12:16:24;25.37;;;16.55;;
75793;SDS011;64418;47.536;19.074;2022-12-29T12:18:58;29.58;;;17.08;;
75793;SDS011;64418;47.536;19.074;2022-12-29T12:21:32;26.92;;;16.27;;
75793;SDS011;64418;47.536;19.074;2022-12-29T12:24:16;25.80;;;17.03;;
75793;SDS011;64418;47.536;19.074;2022-12-29T12:26:57;27.27;;;17.67;;
75793;SDS011;64418;47.536;19.074;2022-12-29T12:29:29;25.15;;;17.10;;
75793;SDS011;64418;47.536;19.074;2022-12-29T12:32:04;27.45;;;17.55;;
75793;SDS011;64418;47.536;19.074;2022-12-29T12:34:41;38.15;;;24.12;;
75793;SDS011;64418;47.536;19.074;2022-12-29T12:43:03;30.05;;;17.83;;
75793;SDS011;64418;47.536;19.074;2022-12-29T12:45:42;30.88;;;19.85;;
75793;SDS011;64418;47.536;19.074;2022-12-29T12:51:23;32.60;;;20.07;;
75793;SDS011;64418;47.536;19.074;2022-12-29T12:54:06;26.52;;;18.00;;
75793;SDS011;64418;47.536;19.074;2022-12-29T12:56:51;27.27;;;16.27;;
75793;SDS011;64418;47.536;19.074;2022-12-29T12:59:30;29.55;;;17.85;;
75793;SDS011;64418;47.536;19.074;2022-12-29T13:02:08;25.92;;;17.12;;
75793;SDS011;64418;47.536;19.074;2022-12-29T13:04:52;26.37;;;17.17;;
75793;SDS011;64418;47.536;19.074;2022-12-29T13:07:35;26.27;;;17.35;;
75793;SDS011;64418;47.536;19.074;2022-12-29T13:13:14;30.17;;;18.62;;
75793;SDS011;64418;47.536;19.074;2022-12-29T13:15:52;27.77;;;17.20;;
75793;SDS011;64418;47.536;19.074;2022-12-29T13:18:27;28.83;;;18.10;;
75793;SDS011;64418;47.536;19.074;2022-12-29T13:21:02;25.20;;;17.25;;
75793;SDS011;64418;47.536;19.074;2022-12-29T13:23:34;31.40;;;18.27;;
75793;SDS011;64418;47.536;19.074;2022-12-29T13:26:05;26.37;;;16.67;;
75793;SDS011;64418;47.536;19.074;2022-12-29T13:28:42;26.75;;;17.55;;
75793;SDS011;64418;47.536;19.074;2022-12-29T13:31:15;25.50;;;16.83;;
75793;SDS011;64418;47.536;19.074;2022-12-29T13:33:51;30.02;;;17.33;;
75793;SDS011;64418;47.536;19.074;2022-12-29T13:36:27;26.08;;;17.10;;
75793;SDS011;64418;47.536;19.074;2022-12-29T13:39:02;29.27;;;17.90;;
75793;SDS011;64418;47.536;19.074;2022-12-29T13:41:35;30.90;;;17.40;;
75793;SDS011;64418;47.536;19.074;2022-12-29T13:44:06;27.17;;;17.47;;
75793;SDS011;64418;47.536;19.074;2022-12-29T13:46:42;33.50;;;18.83;;
75793;SDS011;64418;47.536;19.074;2022-12-29T13:49:12;29.30;;;17.48;;
75793;SDS011;64418;47.536;19.074;2022-12-29T13:51:42;30.00;;;16.98;;
75793;SDS011;64418;47.536;19.074;2022-12-29T13:54:17;30.70;;;17.33;;
75793;SDS011;64418;47.536;19.074;2022-12-29T13:56:51;32.67;;;17.50;;
75793;SDS011;64418;47.536;19.074;2022-12-29T13:59:30;28.95;;;17.05;;
75793;SDS011;64418;47.536;19.074;2022-12-29T14:02:09;36.35;;;18.40;;
75793;SDS011;64418;47.536;19.074;2022-12-29T14:07:26;29.37;;;17.37;;
75793;SDS011;64418;47.536;19.074;2022-12-29T14:09:55;30.23;;;17.77;;
75793;SDS011;64418;47.536;19.074;2022-12-29T14:12:28;32.75;;;16.85;;
75793;SDS011;64418;47.536;19.074;2022-12-29T14:15:15;29.27;;;16.87;;
75793;SDS011;64418;47.536;19.074;2022-12-29T14:18:00;31.12;;;17.33;;
75793;SDS011;64418;47.536;19.074;2022-12-29T14:20:29;34.47;;;17.30;;
75793;SDS011;64418;47.536;19.074;2022-12-29T14:22:56;29.80;;;18.07;;
75793;SDS011;64418;47.536;19.074;2022-12-29T14:28:40;40.58;;;21.77;;
75793;SDS011;64418;47.536;19.074;2022-12-29T14:34:16;37.70;;;20.53;;
75793;SDS011;64418;47.536;19.074;2022-12-29T14:36:56;36.00;;;19.10;;
75793;SDS011;64418;47.536;19.074;2022-12-29T14:42:12;33.65;;;18.12;;
75793;SDS011;64418;47.536;19.074;2022-12-29T14:44:47;32.78;;;17.77;;
75793;SDS011;64418;47.536;19.074;2022-12-29T14:47:18;37.30;;;17.80;;
75793;SDS011;64418;47.536;19.074;2022-12-29T14:49:48;35.72;;;19.08;;
75793;SDS011;64418;47.536;19.074;2022-12-29T14:52:17;37.63;;;19.52;;
75793;SDS011;64418;47.536;19.074;2022-12-29T14:57:27;38.33;;;20.35;;
75793;SDS011;64418;47.536;19.074;2022-12-29T14:59:59;34.00;;;18.13;;
75793;SDS011;64418;47.536;19.074;2022-12-29T15:02:32;33.30;;;18.15;;